Terminal Aerodrome Forecast
Issued by NWS Jackson, MS

Home | Current Version | Previous Version | Text Only | Print | Product List | Glossary On
Versions: 1 2 3 4 5 6 7 8 9 10 11 12
477
FTUS44 KJAN 191128
TAFGLH
TAF
KGLH 191128Z 1912/2012 11004KT 5SM BR BKN035
     FM191500 12009KT P6SM FEW250=

USA.gov is the U.S. government's official web portal to all federal, state and local government web resources and services.